createdAt,value
2023-04-14T00:01:06.718Z,100848.28
2023-04-14T00:03:34.599Z,100846.06
2023-04-14T00:06:02.479Z,100845.78
2023-04-14T00:08:30.592Z,100855.13
2023-04-14T00:10:58.694Z,100860.22
2023-04-14T00:13:26.540Z,100860.72
2023-04-14T00:15:56.438Z,100865.75
2023-04-14T00:18:26.041Z,100858.53
2023-04-14T00:20:55.710Z,100859.22
2023-04-14T00:23:23.532Z,100871.16
2023-04-14T00:25:53.914Z,100871.09
2023-04-14T00:28:23.781Z,100871.47
2023-04-14T00:30:51.763Z,100862.31
2023-04-14T00:33:19.890Z,100863.72
2023-04-14T00:35:49.834Z,100867.91
2023-04-14T00:38:17.765Z,100865.69
2023-04-14T00:40:47.286Z,100864.66
2023-04-14T00:43:19.395Z,100861.16
2023-04-14T00:45:50.165Z,100864.69
2023-04-14T00:48:19.938Z,100874.09
2023-04-14T00:50:50.765Z,100866.28
2023-04-14T00:53:19.981Z,100860.63
2023-04-14T00:55:48.494Z,100870.09
2023-04-14T00:58:17.014Z,100871.50
2023-04-14T01:00:52.350Z,100877.84
2023-04-14T01:03:20.367Z,100876.38
2023-04-14T01:05:49.640Z,100876.47
2023-04-14T01:08:19.013Z,100883.19
2023-04-14T01:10:50.819Z,100886.72
2023-04-14T01:13:33.494Z,100889.28
2023-04-14T01:16:05.614Z,100892.47
2023-04-14T01:18:42.262Z,100897.34
2023-04-14T01:21:18.450Z,100900.53
2023-04-14T01:24:10.258Z,100897.19
2023-04-14T01:26:41.295Z,100895.91
2023-04-14T01:29:36.079Z,100899.69
2023-04-14T01:32:10.934Z,100897.44
2023-04-14T01:34:45.869Z,100903.56
2023-04-14T01:37:17.815Z,100899.16
2023-04-14T01:39:51.198Z,100902.41
2023-04-14T01:42:21.278Z,100901.59
2023-04-14T01:44:53.608Z,100906.69
2023-04-14T01:47:24.447Z,100912.38
2023-04-14T01:49:54.083Z,100915.72
2023-04-14T01:52:23.355Z,100920.97
2023-04-14T01:54:54.930Z,100922.19
2023-04-14T01:57:26.674Z,100927.50
2023-04-14T01:59:58.035Z,100934.16
2023-04-14T02:02:28.858Z,100936.00
2023-04-14T02:04:58.899Z,100936.69
2023-04-14T02:07:28.334Z,100942.34
2023-04-14T02:09:58.445Z,100938.47
2023-04-14T02:12:28.367Z,100952.78
2023-04-14T02:14:56.614Z,100942.91
2023-04-14T02:17:27.234Z,100948.34
2023-04-14T02:19:56.917Z,100950.16
2023-04-14T02:22:25.274Z,100954.59
2023-04-14T02:24:55.746Z,100946.13
2023-04-14T02:27:31.809Z,100947.53
2023-04-14T02:30:06.398Z,100955.25
2023-04-14T02:32:37.063Z,100951.72
2023-04-14T02:35:13.753Z,100957.03
2023-04-14T02:37:45.038Z,100954.94
2023-04-14T02:40:17.227Z,100952.22
2023-04-14T02:42:49.190Z,100956.94
2023-04-14T02:45:23.435Z,100956.84
2023-04-14T02:47:58.372Z,100962.28
2023-04-14T02:50:29.595Z,100958.56
2023-04-14T02:53:05.705Z,100959.13
2023-04-14T02:55:38.584Z,100954.13
2023-04-14T02:58:07.003Z,100960.69
2023-04-14T03:00:41.429Z,100962.69
2023-04-14T03:03:13.030Z,100961.28
2023-04-14T03:05:42.101Z,100958.56
2023-04-14T03:08:13.277Z,100954.78
2023-04-14T03:10:46.615Z,100954.47
2023-04-14T03:13:17.834Z,100960.47
2023-04-14T03:15:46.998Z,100957.19
2023-04-14T03:18:19.074Z,100960.97
2023-04-14T03:20:48.642Z,100960.38
2023-04-14T03:23:19.557Z,100958.97
2023-04-14T03:25:57.206Z,100961.91
2023-04-14T03:28:31.738Z,100959.03
2023-04-14T03:31:05.202Z,100961.16
2023-04-14T03:33:46.939Z,100957.41
2023-04-14T03:36:18.420Z,100954.00
2023-04-14T03:38:49.937Z,100952.28
2023-04-14T03:41:22.063Z,100957.56
2023-04-14T03:43:54.676Z,100958.25
2023-04-14T03:46:24.206Z,100962.69
2023-04-14T03:48:56.649Z,100976.13
2023-04-14T03:51:27.917Z,100972.34
2023-04-14T03:53:58.107Z,100975.19
2023-04-14T03:56:27.749Z,100978.06
2023-04-14T03:58:58.129Z,100970.38
2023-04-14T04:01:28.002Z,100976.56
2023-04-14T04:03:58.969Z,100978.19
2023-04-14T04:06:27.474Z,100973.47
2023-04-14T04:08:59.071Z,100985.34
2023-04-14T04:11:32.980Z,100979.06
2023-04-14T04:14:02.007Z,100985.19
2023-04-14T04:16:31.652Z,100991.34
2023-04-14T04:19:06.156Z,100983.00
2023-04-14T04:21:36.530Z,100988.13
2023-04-14T04:24:07.619Z,100988.13
2023-04-14T04:26:36.611Z,100985.72
2023-04-14T04:29:05.639Z,100982.47
2023-04-14T04:31:35.399Z,100992.03
2023-04-14T04:34:07.003Z,100991.34
2023-04-14T04:36:39.448Z,100996.78
2023-04-14T04:39:07.612Z,101005.06
2023-04-14T04:41:40.203Z,100997.78
2023-04-14T04:44:08.330Z,100995.22
2023-04-14T04:46:48.426Z,100998.66
2023-04-14T04:49:19.250Z,101003.38
2023-04-14T04:51:48.568Z,101003.38
2023-04-14T04:54:20.335Z,101006.53
2023-04-14T04:56:48.387Z,101009.25
2023-04-14T04:59:16.734Z,101011.28
2023-04-14T05:01:44.675Z,101015.09
2023-04-14T05:04:12.784Z,101008.81
2023-04-14T05:06:42.103Z,101017.69
2023-04-14T05:09:10.098Z,101020.81
2023-04-14T05:11:37.896Z,101014.69
2023-04-14T05:14:05.655Z,101016.97
2023-04-14T05:16:33.870Z,101015.06
2023-04-14T05:19:01.959Z,101016.03
2023-04-14T05:21:30.718Z,101017.88
2023-04-14T05:24:00.434Z,101017.59
2023-04-14T05:26:49.186Z,101031.41
2023-04-14T05:29:16.087Z,101028.69
2023-04-14T05:31:43.976Z,101026.97
2023-04-14T05:34:11.837Z,101026.69
2023-04-14T05:36:39.645Z,101026.84
2023-04-14T05:39:08.764Z,101032.72
2023-04-14T05:41:36.501Z,101028.00
2023-04-14T05:44:04.719Z,101033.13
2023-04-14T05:46:33.057Z,101038.41
2023-04-14T05:49:01.844Z,101042.53
2023-04-14T05:51:30.356Z,101041.91
2023-04-14T05:53:58.428Z,101034.63
2023-04-14T05:56:28.298Z,101037.03
2023-04-14T05:58:56.487Z,101039.44
2023-04-14T06:01:24.336Z,101036.56
2023-04-14T06:03:52.391Z,101041.56
2023-04-14T06:06:20.813Z,101045.81
2023-04-14T06:08:48.783Z,101039.38
2023-04-14T06:11:17.161Z,101034.63
2023-04-14T06:13:46.642Z,101037.34
2023-04-14T06:16:14.574Z,101030.59
2023-04-14T06:18:42.659Z,101029.44
2023-04-14T06:21:11.148Z,101027.56
2023-04-14T06:23:39.315Z,101032.28
2023-04-14T06:26:07.387Z,101015.97
2023-04-14T06:28:35.282Z,101030.59
2023-04-14T06:31:04.722Z,101020.94
2023-04-14T06:33:33.185Z,101021.19
2023-04-14T06:36:01.153Z,101017.00
2023-04-14T06:38:29.113Z,101013.97
2023-04-14T06:40:57.306Z,101015.66
2023-04-14T06:43:25.363Z,101014.78
2023-04-14T06:45:53.157Z,101028.25
2023-04-14T06:48:22.421Z,101022.66
2023-04-14T06:50:55.567Z,101025.63
2023-04-14T06:53:23.609Z,101028.63
2023-04-14T06:55:59.365Z,101021.72
2023-04-14T06:58:28.507Z,101020.53
2023-04-14T07:00:57.456Z,101018.81
2023-04-14T07:03:27.909Z,101020.84
2023-04-14T07:05:56.406Z,101013.38
2023-04-14T07:08:24.620Z,101021.81
2023-04-14T07:11:00.897Z,101025.91
2023-04-14T07:13:29.059Z,101023.22
2023-04-14T07:15:57.116Z,101013.56
2023-04-14T07:18:26.456Z,101016.41
2023-04-14T07:20:55.455Z,101020.22
2023-04-14T07:23:23.668Z,101013.78
2023-04-14T07:25:52.874Z,101017.63
2023-04-14T07:28:21.012Z,101018.31
2023-04-14T07:30:49.742Z,101023.78
2023-04-14T07:33:19.198Z,101022.84
2023-04-14T07:36:01.302Z,101019.72
2023-04-14T07:38:31.520Z,101021.06
2023-04-14T07:40:59.456Z,101026.00
2023-04-14T07:43:27.490Z,101024.88
2023-04-14T07:45:55.709Z,101016.91
2023-04-14T07:48:23.594Z,101014.75
2023-04-14T07:50:53.404Z,101016.88
2023-04-14T07:53:22.039Z,101013.84
2023-04-14T07:55:50.527Z,101020.69
2023-04-14T07:58:19.005Z,101017.28
2023-04-14T08:00:47.861Z,101023.94
2023-04-14T08:03:17.129Z,101027.31
2023-04-14T08:05:46.244Z,101023.63
2023-04-14T08:08:16.026Z,101025.59
2023-04-14T08:10:44.453Z,101024.69
2023-04-14T08:13:12.777Z,101022.97
2023-04-14T08:15:41.466Z,101025.38
2023-04-14T08:18:10.787Z,101023.22
2023-04-14T08:20:39.322Z,101027.06
2023-04-14T08:23:08.008Z,101022.84
2023-04-14T08:25:37.869Z,101018.97
2023-04-14T08:28:06.265Z,101018.09
2023-04-14T08:30:34.766Z,101014.84
2023-04-14T08:33:02.829Z,101019.03
2023-04-14T08:35:39.767Z,101012.78
2023-04-14T08:38:10.170Z,101010.25
2023-04-14T08:40:42.257Z,101008.91
2023-04-14T08:43:13.725Z,101007.72
2023-04-14T08:45:45.097Z,101010.84
2023-04-14T08:48:16.132Z,101012.94
2023-04-14T08:50:56.642Z,101009.00
2023-04-14T08:53:27.481Z,101010.09
2023-04-14T08:55:58.740Z,101011.97
2023-04-14T08:58:26.925Z,101004.13
2023-04-14T09:00:55.991Z,101001.75
2023-04-14T09:03:25.895Z,101010.97
2023-04-14T09:05:55.619Z,101008.75
2023-04-14T09:08:24.629Z,101007.75
2023-04-14T09:10:53.084Z,101015.25
2023-04-14T09:13:28.691Z,101012.03
2023-04-14T09:15:58.198Z,101006.38
2023-04-14T09:18:28.251Z,101014.06
2023-04-14T09:21:29.462Z,101017.66
2023-04-14T09:23:48.253Z,101018.88
2023-04-14T09:26:17.364Z,101019.03
2023-04-14T09:28:47.568Z,101012.66
2023-04-14T09:31:16.707Z,101006.34
2023-04-14T09:33:48.042Z,101012.66
2023-04-14T09:36:20.755Z,101013.69
2023-04-14T09:38:49.752Z,101006.69
2023-04-14T09:41:19.246Z,101006.69
2023-04-14T09:43:49.045Z,101006.34
2023-04-14T09:46:18.004Z,100999.16
2023-04-14T09:48:54.108Z,101009.25
2023-04-14T09:51:29.059Z,101007.56
2023-04-14T09:54:03.050Z,101007.00
2023-04-14T09:56:31.717Z,101009.38
2023-04-14T09:59:03.755Z,101003.94
2023-04-14T10:01:34.698Z,101014.00
2023-04-14T10:04:03.818Z,101003.19
2023-04-14T10:06:32.572Z,101007.75
2023-04-14T10:09:00.977Z,101006.22
2023-04-14T10:11:30.696Z,101008.25
2023-04-14T10:14:01.650Z,100997.88
2023-04-14T10:16:29.575Z,101006.59
2023-04-14T10:18:58.988Z,101007.41
2023-04-14T10:21:28.462Z,101000.63
2023-04-14T10:23:58.133Z,101003.81
2023-04-14T10:26:26.851Z,101002.06
2023-04-14T10:28:56.917Z,100992.28
2023-04-14T10:31:30.454Z,100993.97
2023-04-14T10:33:59.005Z,100988.13
2023-04-14T10:36:29.023Z,101000.97
2023-04-14T10:39:02.322Z,100997.16
2023-04-14T10:41:46.732Z,100985.97
2023-04-14T10:44:25.675Z,100996.78
2023-04-14T10:46:56.929Z,100989.97
2023-04-14T10:49:30.377Z,100998.84
2023-04-14T10:52:00.516Z,100990.09
2023-04-14T10:54:28.456Z,100983.38
2023-04-14T10:57:15.644Z,100983.53
2023-04-14T10:59:44.619Z,100980.94
2023-04-14T11:02:28.159Z,100973.78
2023-04-14T11:05:04.982Z,100972.03
2023-04-14T11:07:40.423Z,100980.34
2023-04-14T11:10:28.677Z,100973.22
2023-04-14T11:12:58.558Z,100967.22
2023-04-14T11:15:44.597Z,100971.19
2023-04-14T11:18:15.846Z,100967.53
2023-04-14T11:20:44.126Z,100955.44
2023-04-14T11:23:14.479Z,100960.84
2023-04-14T11:25:42.586Z,100953.63
2023-04-14T11:28:10.508Z,100956.06
2023-04-14T11:30:41.711Z,100943.09
2023-04-14T11:33:09.663Z,100947.66
2023-04-14T11:35:39.133Z,100944.44
2023-04-14T11:38:10.621Z,100936.59
2023-04-14T11:40:38.894Z,100941.91
2023-04-14T11:43:08.058Z,100938.50
2023-04-14T11:45:36.359Z,100943.31
2023-04-14T11:48:06.243Z,100939.44
2023-04-14T11:50:38.738Z,100947.75
2023-04-14T11:53:10.436Z,100941.44
2023-04-14T11:55:38.677Z,100944.94
2023-04-14T11:58:06.703Z,100940.63
2023-04-14T12:00:34.957Z,100936.94
2023-04-14T12:03:04.104Z,100940.91
2023-04-14T12:05:34.399Z,100946.41
2023-04-14T12:08:07.705Z,100942.66
2023-04-14T12:10:38.210Z,100938.69
2023-04-14T12:13:07.126Z,100939.91
2023-04-14T12:15:37.777Z,100940.00
2023-04-14T12:18:08.586Z,100939.63
2023-04-14T12:20:43.488Z,100935.56
2023-04-14T12:23:11.358Z,100938.22
2023-04-14T12:25:41.105Z,100938.94
2023-04-14T12:28:09.285Z,100938.56
2023-04-14T12:30:38.486Z,100935.56
2023-04-14T12:33:12.046Z,100931.75
2023-04-14T12:35:41.326Z,100930.97
2023-04-14T12:38:13.745Z,100930.47
2023-04-14T12:40:46.539Z,100926.00
2023-04-14T12:43:14.946Z,100923.03
2023-04-14T12:45:44.638Z,100926.03
2023-04-14T12:48:13.590Z,100931.66
2023-04-14T12:50:41.771Z,100917.97
2023-04-14T12:53:26.122Z,100929.47
2023-04-14T12:56:10.272Z,100913.78
2023-04-14T12:58:39.165Z,100921.28
2023-04-14T13:01:07.999Z,100912.88
2023-04-14T13:03:40.693Z,100913.56
2023-04-14T13:06:09.387Z,100921.34
2023-04-14T13:08:37.447Z,100916.81
2023-04-14T13:11:06.192Z,100914.53
2023-04-14T13:13:35.340Z,100915.84
2023-04-14T13:16:12.861Z,100909.03
2023-04-14T13:18:43.977Z,100912.97
2023-04-14T13:21:13.381Z,100901.72
2023-04-14T13:23:41.927Z,100899.72
2023-04-14T13:26:09.999Z,100892.97
2023-04-14T13:28:39.485Z,100899.97
2023-04-14T13:31:07.640Z,100895.38
2023-04-14T13:33:35.602Z,100896.25
2023-04-14T13:36:04.015Z,100891.63
2023-04-14T13:38:32.089Z,100883.59
2023-04-14T13:41:00.312Z,100883.00
2023-04-14T13:43:29.017Z,100885.56
2023-04-14T13:45:59.203Z,100876.63
2023-04-14T13:48:27.219Z,100879.41
2023-04-14T13:50:55.824Z,100877.47
2023-04-14T13:53:24.025Z,100872.19
2023-04-14T13:55:52.059Z,100882.50
2023-04-14T13:58:20.281Z,100869.56
2023-04-14T14:00:48.403Z,100869.09
2023-04-14T14:03:17.999Z,100872.44
2023-04-14T14:05:46.416Z,100868.50
2023-04-14T14:08:15.859Z,100867.94
2023-04-14T14:10:44.246Z,100865.28
2023-04-14T14:13:12.185Z,100865.72
2023-04-14T14:15:40.457Z,100861.03
2023-04-14T14:18:08.907Z,100856.16
2023-04-14T14:20:38.941Z,100854.25
2023-04-14T14:23:06.932Z,100855.47
2023-04-14T14:25:34.914Z,100853.59
2023-04-14T14:28:02.786Z,100861.84
2023-04-14T14:30:31.224Z,100848.69
2023-04-14T14:32:59.326Z,100850.03
2023-04-14T14:35:27.111Z,100855.53
2023-04-14T14:37:58.043Z,100850.63
2023-04-14T14:40:27.401Z,100851.63
2023-04-14T14:42:55.623Z,100848.81
2023-04-14T14:45:30.319Z,100845.22
2023-04-14T14:47:59.957Z,100846.56
2023-04-14T14:50:27.835Z,100846.56
2023-04-14T14:52:58.049Z,100842.59
2023-04-14T14:55:27.259Z,100841.97
2023-04-14T14:57:55.520Z,100833.09
2023-04-14T15:00:23.239Z,100827.34
2023-04-14T15:02:51.311Z,100826.03
2023-04-14T15:05:19.380Z,100827.06
2023-04-14T15:07:47.579Z,100824.09
2023-04-14T15:10:17.237Z,100816.03
2023-04-14T15:12:45.140Z,100817.75
2023-04-14T15:15:13.157Z,100822.16
2023-04-14T15:17:41.209Z,100827.00
2023-04-14T15:20:10.576Z,100836.53
2023-04-14T15:22:38.548Z,100839.28
2023-04-14T15:25:09.199Z,100826.78
2023-04-14T15:27:38.645Z,100828.75
2023-04-14T15:30:08.274Z,100826.88
2023-04-14T15:32:36.117Z,100829.88
2023-04-14T15:35:04.325Z,100828.00
2023-04-14T15:37:32.758Z,100838.59
2023-04-14T15:40:01.644Z,100833.06
2023-04-14T15:42:29.616Z,100832.38
2023-04-14T15:44:58.694Z,100831.97
2023-04-14T15:47:28.121Z,100835.59
2023-04-14T15:50:09.563Z,100844.72
2023-04-14T15:52:39.453Z,100837.53
2023-04-14T15:55:08.990Z,100841.56
2023-04-14T15:57:37.167Z,100837.31
2023-04-14T16:00:08.860Z,100836.91
2023-04-14T16:02:43.124Z,100840.66
2023-04-14T16:05:11.856Z,100839.81
2023-04-14T16:07:40.304Z,100844.03
2023-04-14T16:10:09.240Z,100845.28
2023-04-14T16:12:37.809Z,100848.41
2023-04-14T16:15:09.713Z,100846.69
2023-04-14T16:17:37.587Z,100844.53
2023-04-14T16:20:06.811Z,100842.84
2023-04-14T16:22:34.799Z,100851.28
2023-04-14T16:25:04.417Z,100851.69
2023-04-14T16:27:32.181Z,100851.69
2023-04-14T16:30:00.209Z,100861.00
2023-04-14T16:32:30.500Z,100851.88
2023-04-14T16:34:58.500Z,100859.88
2023-04-14T16:37:27.517Z,100860.97
2023-04-14T16:39:56.162Z,100861.34
2023-04-14T16:42:25.156Z,100856.63
2023-04-14T16:44:53.608Z,100864.53
2023-04-14T16:47:22.200Z,100865.66
2023-04-14T16:49:51.792Z,100868.78
2023-04-14T16:52:20.869Z,100864.94
2023-04-14T16:54:48.715Z,100861.31
2023-04-14T16:57:16.813Z,100863.44
2023-04-14T16:59:46.231Z,100862.97
2023-04-14T17:02:14.157Z,100862.75
2023-04-14T17:04:42.155Z,100861.28
2023-04-14T17:07:11.680Z,100876.25
2023-04-14T17:09:39.507Z,100867.16
2023-04-14T17:12:07.497Z,100866.97
2023-04-14T17:14:35.679Z,100865.69
2023-04-14T17:17:03.777Z,100861.03
2023-04-14T17:19:32.243Z,100870.50
2023-04-14T17:22:00.717Z,100868.88
2023-04-14T17:24:30.557Z,100870.38
2023-04-14T17:26:58.549Z,100873.75
2023-04-14T17:29:27.232Z,100878.47
2023-04-14T17:31:55.935Z,100874.66
2023-04-14T17:34:23.936Z,100879.28
2023-04-14T17:36:52.140Z,100875.50
2023-04-14T17:39:26.676Z,100876.34
2023-04-14T17:41:58.053Z,100881.84
2023-04-14T17:44:31.868Z,100885.00
2023-04-14T17:47:01.029Z,100882.25
2023-04-14T17:49:28.989Z,100889.19
2023-04-14T17:51:57.319Z,100889.41
2023-04-14T17:54:25.270Z,100897.66
2023-04-14T17:56:53.786Z,100901.22
2023-04-14T17:59:23.116Z,100912.44
2023-04-14T18:01:51.298Z,100905.44
2023-04-14T18:04:19.099Z,100906.84
2023-04-14T18:06:46.985Z,100913.22
2023-04-14T18:09:14.743Z,100916.59
2023-04-14T18:11:42.870Z,100913.09
2023-04-14T18:14:10.649Z,100920.66
2023-04-14T18:16:40.536Z,100919.84
2023-04-14T18:19:09.161Z,100923.81
2023-04-14T18:21:37.168Z,100921.72
2023-04-14T18:26:36.662Z,100914.28
2023-04-14T18:29:04.920Z,100918.16
2023-04-14T18:31:32.887Z,100920.38
2023-04-14T18:34:05.322Z,100921.44
2023-04-14T18:36:33.718Z,100927.75
2023-04-14T18:39:02.278Z,100923.78
2023-04-14T18:41:30.438Z,100935.63
2023-04-14T18:43:58.701Z,100933.22
2023-04-14T18:46:27.504Z,100932.59
2023-04-14T18:48:55.454Z,100930.69
2023-04-14T18:51:25.905Z,100938.47
2023-04-14T18:53:53.756Z,100942.63
2023-04-14T18:56:21.604Z,100940.94
2023-04-14T18:58:49.472Z,100945.94
2023-04-14T19:01:18.768Z,100950.41
2023-04-14T19:03:47.329Z,100955.25
2023-04-14T19:06:15.670Z,100958.84
2023-04-14T19:08:44.873Z,100962.41
2023-04-14T19:11:12.641Z,100960.06
2023-04-14T19:13:41.806Z,100960.66
2023-04-14T19:16:11.717Z,100958.88
2023-04-14T19:18:39.687Z,100961.13
2023-04-14T19:21:08.970Z,100959.34
2023-04-14T19:23:38.224Z,100964.75
2023-04-14T19:26:08.384Z,100970.53
2023-04-14T19:28:39.909Z,100974.41
2023-04-14T19:31:07.889Z,100982.34
2023-04-14T19:33:35.748Z,100982.16
2023-04-14T19:36:03.630Z,100986.13
2023-04-14T19:38:31.895Z,100984.78
2023-04-14T19:40:59.802Z,100984.78
2023-04-14T19:43:28.952Z,100996.66
2023-04-14T19:45:57.964Z,100994.13
2023-04-14T19:48:25.874Z,100995.13
2023-04-14T19:50:54.801Z,100994.94
2023-04-14T19:53:23.415Z,100998.22
2023-04-14T19:55:52.008Z,100997.94
2023-04-14T19:58:21.695Z,100996.41
2023-04-14T20:00:52.748Z,100997.63
2023-04-14T20:03:21.294Z,101004.03
2023-04-14T20:05:51.761Z,101003.34
2023-04-14T20:08:20.319Z,100998.34
2023-04-14T20:10:51.168Z,100998.56
2023-04-14T20:13:19.746Z,101001.47
2023-04-14T20:15:49.121Z,101000.25
2023-04-14T20:18:18.834Z,100993.63
2023-04-14T20:20:48.810Z,100994.84
2023-04-14T20:23:17.012Z,100999.47
2023-04-14T20:25:45.881Z,101000.13
2023-04-14T20:28:16.687Z,100994.66
2023-04-14T20:30:45.162Z,101003.63
2023-04-14T20:33:13.327Z,101004.34
2023-04-14T20:35:43.443Z,101004.50
2023-04-14T20:38:13.942Z,100997.84
2023-04-14T20:40:43.653Z,100998.88
2023-04-14T20:43:11.514Z,101001.59
2023-04-14T20:45:39.588Z,101004.72
2023-04-14T20:48:09.168Z,101004.22
2023-04-14T20:50:37.296Z,101005.56
2023-04-14T20:53:07.384Z,101010.06
2023-04-14T20:55:36.622Z,101013.66
2023-04-14T20:58:04.556Z,101006.31
2023-04-14T21:00:34.359Z,101009.69
2023-04-14T21:03:03.530Z,101012.59
2023-04-14T21:05:31.596Z,101014.31
2023-04-14T21:07:59.531Z,101011.78
2023-04-14T21:10:28.876Z,101014.69
2023-04-14T21:15:30.206Z,101016.41
2023-04-14T21:15:56.080Z,101004.41
2023-04-14T21:18:24.192Z,101007.50
2023-04-14T21:20:52.031Z,101011.09
2023-04-14T21:23:20.358Z,101015.06
2023-04-14T21:25:50.091Z,101009.59
2023-04-14T21:28:18.324Z,101018.66
2023-04-14T21:30:46.339Z,101012.31
2023-04-14T21:33:14.221Z,101020.41
2023-04-14T21:35:42.240Z,101021.63
2023-04-14T21:38:09.938Z,101023.19
2023-04-14T21:40:38.843Z,101019.91
2023-04-14T21:43:08.005Z,101031.03
2023-04-14T21:45:36.190Z,101026.97
2023-04-14T21:48:04.309Z,101035.34
2023-04-14T21:50:33.315Z,101031.94
2023-04-14T21:53:01.526Z,101030.59
2023-04-14T21:55:29.272Z,101033.69
2023-04-14T21:57:57.165Z,101025.50
2023-04-14T22:00:27.882Z,101038.81
2023-04-14T22:02:55.887Z,101032.47
2023-04-14T22:05:24.232Z,101027.53
2023-04-14T22:07:52.032Z,101028.75
2023-04-14T22:10:20.669Z,101032.72
2023-04-14T22:12:49.021Z,101036.81
2023-04-14T22:15:16.993Z,101039.41
2023-04-14T22:17:46.506Z,101045.22
2023-04-14T22:20:14.658Z,101047.59
2023-04-14T22:22:42.397Z,101051.53
2023-04-14T22:25:11.693Z,101052.75
2023-04-14T22:27:39.532Z,101047.59
2023-04-14T22:30:09.541Z,101053.22
2023-04-14T22:32:37.476Z,101064.88
2023-04-14T22:35:07.549Z,101056.66
2023-04-14T22:37:35.394Z,101058.03
2023-04-14T22:40:03.487Z,101057.03
2023-04-14T22:42:31.677Z,101061.63
2023-04-14T22:44:59.659Z,101061.78
2023-04-14T22:47:27.606Z,101065.75
2023-04-14T22:49:55.544Z,101073.78
2023-04-14T22:52:24.703Z,101068.53
2023-04-14T22:54:52.751Z,101072.44
2023-04-14T22:57:20.685Z,101074.00
2023-04-14T22:59:48.442Z,101067.53
2023-04-14T23:02:16.575Z,101070.25
2023-04-14T23:04:45.091Z,101077.31
2023-04-14T23:07:13.573Z,101074.72
2023-04-14T23:09:42.950Z,101071.78
2023-04-14T23:12:10.703Z,101075.75
2023-04-14T23:14:38.613Z,101075.75
2023-04-14T23:17:06.695Z,101080.19
2023-04-14T23:19:35.837Z,101075.75
2023-04-14T23:22:04.509Z,101075.44
2023-04-14T23:24:32.297Z,101072.69
2023-04-14T23:27:01.844Z,101080.41
2023-04-14T23:29:29.754Z,101080.19
2023-04-14T23:31:57.761Z,101077.97
2023-04-14T23:34:25.934Z,101084.50
2023-04-14T23:36:53.760Z,101084.31
2023-04-14T23:39:21.552Z,101079.69
2023-04-14T23:41:49.310Z,101088.59
2023-04-14T23:44:18.458Z,101076.13
2023-04-14T23:46:46.402Z,101077.81
2023-04-14T23:49:23.184Z,101079.03
2023-04-14T23:51:52.729Z,101075.28
2023-04-14T23:54:20.461Z,101075.44
2023-04-14T23:56:48.451Z,101078.03
2023-04-14T23:59:16.461Z,101076.19
